createdAt,value
2016-03-27T00:00:16.545Z,999.95
2016-03-27T00:01:16.597Z,999.91
2016-03-27T00:02:16.647Z,999.87
2016-03-27T00:03:16.697Z,999.83
2016-03-27T00:04:16.747Z,999.87
2016-03-27T00:05:16.796Z,999.82
2016-03-27T00:06:16.846Z,999.76
2016-03-27T00:07:16.896Z,999.71
2016-03-27T00:08:16.961Z,999.66
2016-03-27T00:09:17.010Z,999.67
2016-03-27T00:10:17.060Z,999.63
2016-03-27T00:11:17.110Z,999.68
2016-03-27T00:12:17.159Z,999.62
2016-03-27T00:13:17.208Z,999.64
2016-03-27T00:14:17.257Z,999.57
2016-03-27T00:15:17.307Z,999.52
2016-03-27T00:16:17.434Z,999.49
2016-03-27T00:17:17.401Z,999.47
2016-03-27T00:18:17.436Z,999.46
2016-03-27T00:19:17.486Z,999.39
2016-03-27T00:20:17.520Z,999.39
2016-03-27T00:21:17.555Z,999.42
2016-03-27T00:22:17.609Z,999.39
2016-03-27T00:23:17.637Z,999.41
2016-03-27T00:24:17.682Z,999.38
2016-03-27T00:25:17.741Z,999.42
2016-03-27T00:26:17.769Z,999.41
2016-03-27T00:27:17.815Z,999.43
2016-03-27T00:28:17.878Z,999.42
2016-03-27T00:29:17.926Z,999.45
2016-03-27T00:30:17.973Z,999.41
2016-03-27T00:31:18.020Z,999.44
2016-03-27T00:32:18.067Z,999.39
2016-03-27T00:33:18.116Z,999.38
2016-03-27T00:34:18.181Z,999.34
2016-03-27T00:35:18.230Z,999.28
2016-03-27T00:36:18.277Z,999.24
2016-03-27T00:37:18.327Z,999.23
2016-03-27T00:38:18.377Z,999.17
2016-03-27T00:39:18.443Z,999.21
2016-03-27T00:40:18.476Z,999.2
2016-03-27T00:41:18.526Z,999.16
2016-03-27T00:42:18.575Z,999.16
2016-03-27T00:43:18.626Z,999.13
2016-03-27T00:44:18.674Z,999.12
2016-03-27T00:45:18.723Z,999.12
2016-03-27T00:46:18.914Z,999.08
2016-03-27T00:47:18.823Z,999.04
2016-03-27T00:48:18.889Z,999.01
2016-03-27T00:49:18.937Z,998.98
2016-03-27T00:50:18.987Z,998.98
2016-03-27T00:51:19.053Z,998.99
2016-03-27T00:52:19.087Z,998.97
2016-03-27T00:53:19.152Z,998.9
2016-03-27T00:54:19.185Z,998.9
2016-03-27T00:55:19.251Z,998.89
2016-03-27T00:56:19.300Z,998.89
2016-03-27T00:57:19.350Z,998.89
2016-03-27T00:58:19.400Z,998.88
2016-03-27T00:59:19.449Z,998.86
2016-03-27T01:00:19.499Z,998.88
2016-03-27T01:01:19.549Z,998.92
2016-03-27T01:02:19.597Z,998.93
2016-03-27T01:03:19.647Z,998.96
2016-03-27T01:04:19.713Z,998.96
2016-03-27T01:05:19.746Z,998.99
2016-03-27T01:06:19.828Z,998.94
2016-03-27T01:07:19.861Z,998.96
2016-03-27T01:08:19.914Z,998.98
2016-03-27T01:09:19.964Z,998.92
2016-03-27T01:10:20.030Z,998.94
2016-03-27T01:11:20.063Z,998.96
2016-03-27T01:12:20.114Z,998.96
2016-03-27T01:13:20.163Z,998.93
2016-03-27T01:14:20.211Z,998.91
2016-03-27T01:15:20.278Z,998.87
2016-03-27T01:16:20.327Z,998.82
2016-03-27T01:17:20.376Z,998.8
2016-03-27T01:18:20.411Z,998.77
2016-03-27T01:19:20.475Z,998.74
2016-03-27T01:20:20.525Z,998.7
2016-03-27T01:21:20.575Z,998.68
2016-03-27T01:22:20.624Z,998.68
2016-03-27T01:23:20.674Z,998.66
2016-03-27T01:24:20.724Z,998.55
2016-03-27T01:25:20.788Z,998.59
2016-03-27T01:26:20.837Z,998.5
2016-03-27T01:27:20.872Z,998.53
2016-03-27T01:28:20.953Z,998.58
2016-03-27T01:29:20.987Z,998.58
2016-03-27T01:30:21.052Z,998.58
2016-03-27T01:31:21.086Z,998.54
2016-03-27T01:32:21.135Z,998.45
2016-03-27T01:33:21.185Z,998.52
2016-03-27T01:34:21.234Z,998.52
2016-03-27T01:35:21.284Z,998.53
2016-03-27T01:36:21.365Z,998.48
2016-03-27T01:37:21.398Z,998.49
2016-03-27T01:38:21.448Z,998.43
2016-03-27T01:39:21.498Z,998.42
2016-03-27T01:40:21.532Z,998.43
2016-03-27T01:41:21.614Z,998.4
2016-03-27T01:42:21.647Z,998.34
2016-03-27T01:43:21.696Z,998.34
2016-03-27T01:44:21.746Z,998.32
2016-03-27T01:45:21.795Z,998.32
2016-03-27T01:46:21.845Z,998.27
2016-03-27T01:47:21.910Z,998.27
2016-03-27T01:48:21.960Z,998.24
2016-03-27T01:49:22.010Z,998.2
2016-03-27T01:50:22.059Z,998.17
2016-03-27T01:51:22.093Z,998.15
2016-03-27T01:52:22.158Z,998.22
2016-03-27T01:53:22.208Z,998.19
2016-03-27T01:54:22.257Z,998.17
2016-03-27T01:55:22.322Z,998.09
2016-03-27T01:56:22.372Z,998.03
2016-03-27T01:57:22.421Z,998.02
2016-03-27T01:58:22.471Z,997.95
2016-03-27T01:59:22.505Z,997.94
2016-03-27T02:00:22.570Z,997.91
2016-03-27T02:01:22.635Z,997.9
2016-03-27T02:02:22.670Z,997.86
2016-03-27T02:03:22.718Z,997.88
2016-03-27T02:04:22.769Z,997.86
2016-03-27T02:05:22.818Z,997.82
2016-03-27T02:06:22.868Z,997.83
2016-03-27T02:07:22.928Z,997.82
2016-03-27T02:08:22.975Z,997.74
2016-03-27T02:09:23.086Z,997.71
2016-03-27T02:10:23.193Z,997.71
2016-03-27T02:11:23.134Z,997.65
2016-03-27T02:12:23.183Z,997.63
2016-03-27T02:13:23.234Z,997.61
2016-03-27T02:14:23.283Z,997.59
2016-03-27T02:15:23.347Z,997.58
2016-03-27T02:16:23.381Z,997.54
2016-03-27T02:17:23.431Z,997.51
2016-03-27T02:18:23.481Z,997.53
2016-03-27T02:19:23.562Z,997.45
2016-03-27T02:20:23.595Z,997.45
2016-03-27T02:21:23.645Z,997.44
2016-03-27T02:22:23.680Z,997.49
2016-03-27T02:23:23.744Z,997.48
2016-03-27T02:24:23.793Z,997.45
2016-03-27T02:25:23.843Z,997.46
2016-03-27T02:26:23.893Z,997.47
2016-03-27T02:27:23.958Z,997.47
2016-03-27T02:28:24.008Z,997.41
2016-03-27T02:29:24.057Z,997.4
2016-03-27T02:30:24.091Z,997.38
2016-03-27T02:31:24.157Z,997.33
2016-03-27T02:32:24.221Z,997.28
2016-03-27T02:33:24.240Z,997.27
2016-03-27T02:34:24.304Z,997.26
2016-03-27T02:35:24.355Z,997.2
2016-03-27T02:36:24.404Z,997.16
2016-03-27T02:37:24.454Z,997.1
2016-03-27T02:38:24.504Z,997.06
2016-03-27T02:39:24.553Z,996.98
2016-03-27T02:40:24.603Z,996.92
2016-03-27T02:41:24.652Z,996.9
2016-03-27T02:42:24.701Z,996.88
2016-03-27T02:43:24.751Z,996.92
2016-03-27T02:44:24.800Z,996.86
2016-03-27T02:45:24.866Z,996.84
2016-03-27T02:46:24.900Z,996.83
2016-03-27T02:47:24.965Z,996.8
2016-03-27T02:48:25.014Z,996.75
2016-03-27T02:49:25.064Z,996.79
2016-03-27T02:50:25.114Z,996.7
2016-03-27T02:51:25.163Z,996.68
2016-03-27T02:52:25.228Z,996.64
2016-03-27T02:53:25.278Z,996.66
2016-03-27T02:54:25.311Z,996.67
2016-03-27T02:55:25.377Z,996.64
2016-03-27T02:56:25.427Z,996.59
2016-03-27T02:57:25.476Z,996.59
2016-03-27T02:58:25.527Z,996.57
2016-03-27T02:59:25.575Z,996.56
2016-03-27T03:00:25.624Z,996.52
2016-03-27T03:01:25.691Z,996.5
2016-03-27T03:02:25.724Z,996.51
2016-03-27T03:03:25.790Z,996.49
2016-03-27T03:04:25.839Z,996.52
2016-03-27T03:05:25.888Z,996.52
2016-03-27T03:06:25.938Z,996.53
2016-03-27T03:07:26.004Z,996.53
2016-03-27T03:08:26.037Z,996.59
2016-03-27T03:09:26.101Z,996.53
2016-03-27T03:10:26.137Z,996.52
2016-03-27T03:11:26.201Z,996.48
2016-03-27T03:12:26.251Z,996.52
2016-03-27T03:13:26.301Z,996.53
2016-03-27T03:14:26.334Z,996.5
2016-03-27T03:15:26.400Z,996.53
2016-03-27T03:16:26.450Z,996.53
2016-03-27T03:17:26.498Z,996.55
2016-03-27T03:18:26.548Z,996.51
2016-03-27T03:19:26.598Z,996.5
2016-03-27T03:20:26.647Z,996.45
2016-03-27T03:21:26.698Z,996.42
2016-03-27T03:22:26.778Z,996.45
2016-03-27T03:23:26.811Z,996.41
2016-03-27T03:24:26.862Z,996.46
2016-03-27T03:25:26.911Z,996.44
2016-03-27T03:26:26.961Z,996.46
2016-03-27T03:27:27.010Z,996.44
2016-03-27T03:28:27.060Z,996.43
2016-03-27T03:29:27.093Z,996.44
2016-03-27T03:30:27.159Z,996.4
2016-03-27T03:31:27.208Z,996.4
2016-03-27T03:32:27.257Z,996.41
2016-03-27T03:33:27.308Z,996.42
2016-03-27T03:34:27.357Z,996.41
2016-03-27T03:35:27.421Z,996.41
2016-03-27T03:36:27.472Z,996.42
2016-03-27T03:37:27.521Z,996.4
2016-03-27T03:38:27.587Z,996.4
2016-03-27T03:39:27.621Z,996.41
2016-03-27T03:40:27.670Z,996.37
2016-03-27T03:41:27.720Z,996.41
2016-03-27T03:42:27.770Z,996.42
2016-03-27T03:43:27.818Z,996.41
2016-03-27T03:44:27.884Z,996.41
2016-03-27T03:45:27.918Z,996.4
2016-03-27T03:46:27.967Z,996.37
2016-03-27T03:47:28.111Z,996.34
2016-03-27T03:48:28.067Z,996.36
2016-03-27T03:49:28.131Z,996.35
2016-03-27T03:50:28.181Z,996.34
2016-03-27T03:51:28.231Z,996.35
2016-03-27T03:52:28.296Z,996.3
2016-03-27T03:53:28.345Z,996.27
2016-03-27T03:54:28.395Z,996.24
2016-03-27T03:55:28.444Z,996.24
2016-03-27T03:56:28.495Z,996.19
2016-03-27T03:57:28.528Z,996.18
2016-03-27T03:58:28.594Z,996.2
2016-03-27T03:59:28.643Z,996.17
2016-03-27T04:00:28.693Z,996.14
2016-03-27T04:01:28.742Z,996.1
2016-03-27T04:02:28.791Z,996.14
2016-03-27T04:03:28.841Z,996.09
2016-03-27T04:04:28.891Z,996.03
2016-03-27T04:05:28.941Z,996.02
2016-03-27T04:06:28.990Z,995.99
2016-03-27T04:07:29.042Z,995.93
2016-03-27T04:08:29.091Z,995.93
2016-03-27T04:09:29.140Z,995.9
2016-03-27T04:10:29.206Z,995.88
2016-03-27T04:11:29.255Z,995.86
2016-03-27T04:12:29.305Z,995.89
2016-03-27T04:13:29.355Z,995.88
2016-03-27T04:14:29.404Z,995.83
2016-03-27T04:15:29.469Z,995.83
2016-03-27T04:16:29.503Z,995.86
2016-03-27T04:17:29.553Z,995.81
2016-03-27T04:18:29.603Z,995.79
2016-03-27T04:19:29.667Z,995.81
2016-03-27T04:20:29.716Z,995.76
2016-03-27T04:21:29.767Z,995.75
2016-03-27T04:22:29.816Z,995.74
2016-03-27T04:23:29.866Z,995.73
2016-03-27T04:24:29.916Z,995.73
2016-03-27T04:25:29.965Z,995.72
2016-03-27T04:26:30.015Z,995.72
2016-03-27T04:27:30.064Z,995.87
2016-03-27T04:28:30.129Z,996.14
2016-03-27T04:29:30.162Z,996.41
2016-03-27T04:30:30.229Z,996.54
2016-03-27T04:31:30.278Z,996.63
2016-03-27T04:32:30.327Z,996.64
2016-03-27T04:33:30.377Z,996.66
2016-03-27T04:34:30.426Z,996.58
2016-03-27T04:35:30.492Z,996.49
2016-03-27T04:36:30.526Z,996.53
2016-03-27T04:37:30.576Z,996.61
2016-03-27T04:38:30.625Z,996.67
2016-03-27T04:39:30.675Z,996.7
2016-03-27T04:40:30.739Z,996.57
2016-03-27T04:41:30.790Z,996.38
2016-03-27T04:42:30.839Z,996.3
2016-03-27T04:43:30.888Z,996.42
2016-03-27T04:44:30.938Z,996.58
2016-03-27T04:45:30.987Z,996.62
2016-03-27T04:46:31.053Z,996.61
2016-03-27T04:47:31.117Z,996.48
2016-03-27T04:48:31.152Z,996.43
2016-03-27T04:49:31.217Z,996.47
2016-03-27T04:50:31.250Z,996.44
2016-03-27T04:51:31.300Z,996.42
2016-03-27T04:52:31.350Z,996.51
2016-03-27T04:53:31.415Z,996.45
2016-03-27T04:54:31.465Z,996.45
2016-03-27T04:55:31.514Z,996.45
2016-03-27T04:56:31.548Z,996.4
2016-03-27T04:57:31.613Z,996.42
2016-03-27T04:58:31.679Z,996.48
2016-03-27T04:59:31.712Z,996.45
2016-03-27T05:00:31.762Z,996.35
2016-03-27T05:01:31.812Z,996.41
2016-03-27T05:02:31.876Z,996.39
2016-03-27T05:03:31.910Z,996.46
2016-03-27T05:04:31.976Z,996.46
2016-03-27T05:05:32.025Z,996.4
2016-03-27T05:06:32.060Z,996.42
2016-03-27T05:07:32.125Z,996.43
2016-03-27T05:08:32.174Z,996.48
2016-03-27T05:09:32.224Z,996.47
2016-03-27T05:10:32.273Z,996.52
2016-03-27T05:11:32.339Z,996.46
2016-03-27T05:12:32.388Z,996.41
2016-03-27T05:13:32.437Z,996.42
2016-03-27T05:14:32.471Z,996.42
2016-03-27T05:15:32.537Z,996.43
2016-03-27T05:16:32.586Z,996.42
2016-03-27T05:17:32.636Z,996.4
2016-03-27T05:18:32.701Z,996.43
2016-03-27T05:19:32.750Z,996.39
2016-03-27T05:20:32.800Z,996.39
2016-03-27T05:21:32.834Z,996.37
2016-03-27T05:22:32.899Z,996.38
2016-03-27T05:23:32.949Z,996.36
2016-03-27T05:24:33.014Z,996.42
2016-03-27T05:25:33.048Z,996.45
2016-03-27T05:26:33.098Z,996.52
2016-03-27T05:27:33.147Z,996.55
2016-03-27T05:28:33.212Z,996.55
2016-03-27T05:29:33.247Z,996.57
2016-03-27T05:30:33.312Z,996.55
2016-03-27T05:31:33.360Z,996.52
2016-03-27T05:32:33.410Z,996.56
2016-03-27T05:33:33.460Z,996.6
2016-03-27T05:34:33.510Z,996.63
2016-03-27T05:35:33.560Z,996.61
2016-03-27T05:36:33.609Z,996.64
2016-03-27T05:37:33.658Z,996.67
2016-03-27T05:38:33.709Z,996.7
2016-03-27T05:39:33.773Z,996.71
2016-03-27T05:40:33.806Z,996.74
2016-03-27T05:41:33.857Z,996.75
2016-03-27T05:42:33.922Z,996.76
2016-03-27T05:43:33.972Z,996.82
2016-03-27T05:44:34.021Z,996.83
2016-03-27T05:45:34.070Z,996.78
2016-03-27T05:46:34.120Z,996.82
2016-03-27T05:47:34.169Z,996.86
2016-03-27T05:48:34.219Z,996.89
2016-03-27T05:49:34.269Z,996.89
2016-03-27T05:50:34.319Z,996.84
2016-03-27T05:51:34.368Z,996.92
2016-03-27T05:52:34.418Z,996.92
2016-03-27T05:53:34.483Z,996.97
2016-03-27T05:54:34.532Z,996.98
2016-03-27T05:55:34.582Z,996.96
2016-03-27T05:56:34.632Z,997.02
2016-03-27T05:57:34.680Z,996.98
2016-03-27T05:58:34.746Z,997.07
2016-03-27T05:59:34.780Z,997.09
2016-03-27T06:00:34.845Z,997.13
2016-03-27T06:01:34.896Z,997.2
2016-03-27T06:02:34.944Z,997.26
2016-03-27T06:03:34.993Z,997.24
2016-03-27T06:04:35.044Z,997.21
2016-03-27T06:05:35.077Z,997.25
2016-03-27T06:06:35.142Z,997.22
2016-03-27T06:07:35.193Z,997.2
2016-03-27T06:08:35.242Z,997.26
2016-03-27T06:09:35.292Z,997.28
2016-03-27T06:10:35.341Z,997.42
2016-03-27T06:11:35.406Z,997.5
2016-03-27T06:12:35.456Z,997.6
2016-03-27T06:13:35.506Z,997.63
2016-03-27T06:14:35.555Z,997.73
2016-03-27T06:15:35.603Z,997.74
2016-03-27T06:16:35.670Z,997.76
2016-03-27T06:17:35.719Z,997.85
2016-03-27T06:18:35.769Z,997.8
2016-03-27T06:19:35.803Z,997.86
2016-03-27T06:20:35.867Z,997.83
2016-03-27T06:21:35.917Z,997.86
2016-03-27T06:22:35.967Z,997.96
2016-03-27T06:23:36.016Z,998.01
2016-03-27T06:24:36.066Z,998.07
2016-03-27T06:25:36.116Z,998.16
2016-03-27T06:26:36.165Z,998.09
2016-03-27T06:27:36.216Z,998.28
2016-03-27T06:28:36.264Z,998.21
2016-03-27T06:29:36.329Z,998.35
2016-03-27T06:30:36.380Z,998.36
2016-03-27T06:31:36.429Z,998.32
2016-03-27T06:32:36.478Z,998.27
2016-03-27T06:33:36.544Z,998.33
2016-03-27T06:34:36.577Z,998.38
2016-03-27T06:35:36.627Z,998.43
2016-03-27T06:36:36.676Z,998.53
2016-03-27T06:37:36.742Z,998.6
2016-03-27T06:38:36.791Z,998.67
2016-03-27T06:39:36.825Z,998.64
2016-03-27T06:40:36.906Z,998.7
2016-03-27T06:41:36.940Z,998.82
2016-03-27T06:42:36.989Z,998.82
2016-03-27T06:43:37.055Z,998.86
2016-03-27T06:44:37.089Z,998.92
2016-03-27T06:45:37.154Z,998.97
2016-03-27T06:46:37.187Z,999.06
2016-03-27T06:47:37.253Z,999
2016-03-27T06:48:37.303Z,998.97
2016-03-27T06:49:37.353Z,998.99
2016-03-27T06:50:37.402Z,999.05
2016-03-27T06:51:37.436Z,999.07
2016-03-27T06:52:37.485Z,999.03
2016-03-27T06:53:37.550Z,999.05
2016-03-27T06:54:37.599Z,999.01
2016-03-27T06:55:37.650Z,999.07
2016-03-27T06:56:37.714Z,999.12
2016-03-27T06:57:37.763Z,999.08
2016-03-27T06:58:37.799Z,999.09
2016-03-27T06:59:37.910Z,999.1
2016-03-27T07:00:37.913Z,999.14
2016-03-27T07:01:37.963Z,999.2
2016-03-27T07:02:38.012Z,999.21
2016-03-27T07:03:38.062Z,999.21
2016-03-27T07:04:38.127Z,999.24
2016-03-27T07:05:38.160Z,999.19
2016-03-27T07:06:38.210Z,999.22
2016-03-27T07:07:38.276Z,999.2
2016-03-27T07:08:38.341Z,999.22
2016-03-27T07:09:38.374Z,999.2
2016-03-27T07:10:38.423Z,999.24
2016-03-27T07:11:38.474Z,999.23
2016-03-27T07:12:38.523Z,999.2
2016-03-27T07:13:38.572Z,999.18
2016-03-27T07:14:38.638Z,999.19
2016-03-27T07:15:38.672Z,999.14
2016-03-27T07:16:38.722Z,999.13
2016-03-27T07:17:38.771Z,999.13
2016-03-27T07:18:38.820Z,999.16
2016-03-27T07:19:38.870Z,999.17
2016-03-27T07:20:38.920Z,999.25
2016-03-27T07:21:38.969Z,999.31
2016-03-27T07:22:39.034Z,999.4
2016-03-27T07:23:39.084Z,999.4
2016-03-27T07:24:39.134Z,999.47
2016-03-27T07:25:39.214Z,999.5
2016-03-27T07:26:39.249Z,999.54
2016-03-27T07:27:39.298Z,999.5
2016-03-27T07:28:39.348Z,999.47
2016-03-27T07:29:39.381Z,999.54
2016-03-27T07:30:39.447Z,999.49
2016-03-27T07:31:39.496Z,999.53
2016-03-27T07:32:39.546Z,999.56
2016-03-27T07:33:39.596Z,999.61
2016-03-27T07:34:39.660Z,999.6
2016-03-27T07:35:39.694Z,999.64
2016-03-27T07:36:39.760Z,999.71
2016-03-27T07:37:39.809Z,999.73
2016-03-27T07:38:39.859Z,999.73
2016-03-27T07:39:39.893Z,999.78
2016-03-27T07:40:39.957Z,999.83
2016-03-27T07:41:40.008Z,999.86
2016-03-27T07:42:40.057Z,999.85
2016-03-27T07:43:40.106Z,999.88
2016-03-27T07:44:40.173Z,999.92
2016-03-27T07:45:40.206Z,999.95
2016-03-27T07:46:40.270Z,999.93
2016-03-27T07:47:40.336Z,999.96
2016-03-27T07:48:40.386Z,999.96
2016-03-27T07:49:40.420Z,1000.03
2016-03-27T07:50:40.469Z,1000.02
2016-03-27T07:51:40.519Z,999.97
2016-03-27T07:52:40.569Z,1000.03
2016-03-27T07:53:40.617Z,1000.01
2016-03-27T07:54:40.699Z,1000.03
2016-03-27T07:55:40.733Z,1000.1
2016-03-27T07:56:40.782Z,1000.11
2016-03-27T07:57:40.833Z,1000.11
2016-03-27T07:58:40.881Z,1000.08
2016-03-27T07:59:40.946Z,1000.14
2016-03-27T08:00:40.981Z,1000.2
2016-03-27T08:01:41.030Z,1000.2
2016-03-27T08:02:41.079Z,1000.23
2016-03-27T08:03:41.129Z,1000.2
2016-03-27T08:04:41.179Z,1000.24
2016-03-27T08:05:41.243Z,1000.25
2016-03-27T08:06:41.278Z,1000.28
2016-03-27T08:07:41.343Z,1000.33
2016-03-27T08:08:41.392Z,1000.36
2016-03-27T08:09:41.458Z,1000.33
2016-03-27T08:10:41.492Z,1000.38
2016-03-27T08:11:41.540Z,1000.45
2016-03-27T08:12:41.607Z,1000.41
2016-03-27T08:13:41.640Z,1000.51
2016-03-27T08:14:41.690Z,1000.51
2016-03-27T08:15:41.756Z,1000.6
2016-03-27T08:16:41.804Z,1000.61
2016-03-27T08:17:41.854Z,1000.65
2016-03-27T08:18:41.904Z,1000.76
2016-03-27T08:19:41.953Z,1000.76
2016-03-27T08:20:42.003Z,1000.83
2016-03-27T08:21:42.053Z,1000.85
2016-03-27T08:22:42.103Z,1000.88
2016-03-27T08:23:42.167Z,1000.87
2016-03-27T08:24:42.217Z,1000.95
2016-03-27T08:25:42.266Z,1000.97
2016-03-27T08:26:42.300Z,1001
2016-03-27T08:27:42.366Z,1001
2016-03-27T08:28:42.415Z,1001.1
2016-03-27T08:29:42.464Z,1001.07
2016-03-27T08:30:42.514Z,1001.07
2016-03-27T08:31:42.564Z,1001.08
2016-03-27T08:32:42.613Z,1001.13
2016-03-27T08:33:42.679Z,1001.16
2016-03-27T08:34:42.744Z,1001.13
2016-03-27T08:35:42.777Z,1001.15
2016-03-27T08:36:42.812Z,1001.14
2016-03-27T08:37:42.877Z,1001.14
2016-03-27T08:38:42.926Z,1001.09
2016-03-27T08:39:42.977Z,1001.05
2016-03-27T08:40:43.041Z,1001.12
2016-03-27T08:41:43.090Z,1001.14
2016-03-27T08:42:43.124Z,1001.15
2016-03-27T08:43:43.190Z,1001.18
2016-03-27T08:44:43.239Z,1001.17
2016-03-27T08:45:43.273Z,1001.17
2016-03-27T08:46:43.339Z,1001.17
2016-03-27T08:47:43.387Z,1001.16
2016-03-27T08:48:43.438Z,1001.13
2016-03-27T08:49:43.487Z,1001.17
2016-03-27T08:50:43.536Z,1001.12
2016-03-27T08:51:43.587Z,1001.14
2016-03-27T08:52:43.636Z,1001.19
2016-03-27T08:53:43.700Z,1001.21
2016-03-27T08:54:43.751Z,1001.26
2016-03-27T08:55:43.800Z,1001.36
2016-03-27T08:56:43.850Z,1001.46
2016-03-27T08:57:43.900Z,1001.45
2016-03-27T08:58:43.933Z,1001.56
2016-03-27T08:59:43.983Z,1001.62
2016-03-27T09:00:44.063Z,1001.66
2016-03-27T09:01:44.097Z,1001.74
2016-03-27T09:02:44.163Z,1001.72
2016-03-27T09:03:44.212Z,1001.72
2016-03-27T09:04:44.263Z,1001.72
2016-03-27T09:05:44.311Z,1001.75
2016-03-27T09:06:44.361Z,1001.77
2016-03-27T09:07:44.424Z,1001.73
2016-03-27T09:08:44.458Z,1001.82
2016-03-27T09:09:44.508Z,1001.8
2016-03-27T09:10:44.557Z,1001.83
2016-03-27T09:11:44.607Z,1001.88
2016-03-27T09:12:44.657Z,1001.82
2016-03-27T09:13:44.722Z,1001.85
2016-03-27T09:14:44.771Z,1001.9
2016-03-27T09:15:44.821Z,1001.92
2016-03-27T09:16:44.871Z,1001.9
2016-03-27T09:17:44.904Z,1001.93
2016-03-27T09:18:44.969Z,1001.85
2016-03-27T09:19:45.019Z,1001.89
2016-03-27T09:20:45.068Z,1001.89
2016-03-27T09:21:45.135Z,1001.93
2016-03-27T09:22:45.168Z,1001.99
2016-03-27T09:23:45.228Z,1001.97
2016-03-27T09:24:45.266Z,1002.03
2016-03-27T09:25:45.303Z,1001.99
2016-03-27T09:26:45.341Z,1002.07
2016-03-27T09:27:45.379Z,1002.11
2016-03-27T09:28:45.404Z,1002.11
2016-03-27T09:29:45.481Z,1002.03
2016-03-27T09:30:45.511Z,1001.99
2016-03-27T09:31:45.555Z,1001.97
2016-03-27T09:32:45.601Z,1001.87
2016-03-27T09:33:45.663Z,1001.84
2016-03-27T09:34:45.711Z,1001.84
2016-03-27T09:35:45.759Z,1001.81
2016-03-27T09:36:45.792Z,1001.89
2016-03-27T09:37:45.840Z,1001.88
2016-03-27T09:38:45.904Z,1001.9
2016-03-27T09:39:45.953Z,1001.88
2016-03-27T09:40:46.002Z,1001.87
2016-03-27T09:41:46.052Z,1001.87
2016-03-27T09:42:46.100Z,1001.86
2016-03-27T09:43:46.149Z,1001.83
2016-03-27T09:44:46.214Z,1001.85
2016-03-27T09:45:46.263Z,1001.83
2016-03-27T09:46:46.313Z,1001.78
2016-03-27T09:47:46.362Z,1001.81
2016-03-27T09:48:46.411Z,1001.89
2016-03-27T09:49:46.460Z,1001.96
2016-03-27T09:50:46.526Z,1001.97
2016-03-27T09:51:46.560Z,1001.97
2016-03-27T09:52:46.625Z,1001.98
2016-03-27T09:53:46.675Z,1002.06
2016-03-27T09:54:46.723Z,1002.05
2016-03-27T09:55:46.759Z,1002.01
2016-03-27T09:56:46.823Z,1001.99
2016-03-27T09:57:46.856Z,1002.03
2016-03-27T09:58:46.923Z,1002.1
2016-03-27T09:59:46.972Z,1002.16
2016-03-27T10:00:47.021Z,1002.17
2016-03-27T10:01:47.087Z,1002.14
2016-03-27T10:02:47.120Z,1002.13
2016-03-27T10:03:47.202Z,1002.1
2016-03-27T10:04:47.236Z,1002.11
2016-03-27T10:05:47.285Z,1002.14
2016-03-27T10:06:47.319Z,1002.1
2016-03-27T10:07:47.400Z,1002.12
2016-03-27T10:08:47.433Z,1002.07
2016-03-27T10:09:47.483Z,1002.05
2016-03-27T10:10:47.533Z,1002.13
2016-03-27T10:11:47.598Z,1002.1
2016-03-27T10:12:47.632Z,1002.02
2016-03-27T10:13:47.697Z,1002.08
2016-03-27T10:14:47.731Z,1002.15
2016-03-27T10:15:47.812Z,1002.16
2016-03-27T10:16:47.846Z,1002.13
2016-03-27T10:17:47.895Z,1002.23
2016-03-27T10:18:47.945Z,1002.13
2016-03-27T10:19:48.010Z,1002.23
2016-03-27T10:20:48.059Z,1002.37
2016-03-27T10:21:48.110Z,1002.36
2016-03-27T10:22:48.143Z,1002.35
2016-03-27T10:23:48.192Z,1002.34
2016-03-27T10:24:48.259Z,1002.39
2016-03-27T10:25:48.307Z,1002.16
2016-03-27T10:26:48.341Z,1002.21
2016-03-27T10:27:48.407Z,1002.26
2016-03-27T10:28:48.456Z,1002.32
2016-03-27T10:29:48.506Z,1002.41
2016-03-27T10:30:48.555Z,1002.36
2016-03-27T10:31:48.605Z,1002.4
2016-03-27T10:32:48.654Z,1002.35
2016-03-27T10:33:48.704Z,1002.39
2016-03-27T10:34:48.753Z,1002.44
2016-03-27T10:35:48.802Z,1002.47
2016-03-27T10:36:48.853Z,1002.41
2016-03-27T10:37:48.902Z,1002.47
2016-03-27T10:38:48.967Z,1002.51
2016-03-27T10:39:49.017Z,1002.53
2016-03-27T10:40:49.066Z,1002.57
2016-03-27T10:41:49.116Z,1002.47
2016-03-27T10:42:49.166Z,1002.48
2016-03-27T10:43:49.215Z,1002.47
2016-03-27T10:44:49.265Z,1002.47
2016-03-27T10:45:49.315Z,1002.47
2016-03-27T10:46:49.364Z,1002.53
2016-03-27T10:47:49.414Z,1002.56
2016-03-27T10:48:49.463Z,1002.6
2016-03-27T10:49:49.512Z,1002.61
2016-03-27T10:50:49.578Z,1002.76
2016-03-27T10:51:49.627Z,1002.68
2016-03-27T10:52:49.676Z,1002.61
2016-03-27T10:53:49.726Z,1002.7
2016-03-27T10:54:49.776Z,1002.74
2016-03-27T10:55:49.826Z,1002.66
2016-03-27T10:56:49.875Z,1002.67
2016-03-27T10:57:49.925Z,1002.67
2016-03-27T10:58:49.975Z,1002.6
2016-03-27T10:59:50.023Z,1002.68
2016-03-27T11:00:50.073Z,1002.61
2016-03-27T11:01:50.123Z,1002.61
2016-03-27T11:02:50.188Z,1002.6
2016-03-27T11:03:50.223Z,1002.56
2016-03-27T11:04:50.287Z,1002.61
2016-03-27T11:05:50.336Z,1002.58
2016-03-27T11:06:50.387Z,1002.6
2016-03-27T11:07:50.436Z,1002.55
2016-03-27T11:08:50.485Z,1002.5
2016-03-27T11:09:50.535Z,1002.5
2016-03-27T11:10:50.585Z,1002.54
2016-03-27T11:11:50.635Z,1002.47
2016-03-27T11:12:50.683Z,1002.45
2016-03-27T11:13:50.733Z,1002.49
2016-03-27T11:14:50.783Z,1002.5
2016-03-27T11:15:50.832Z,1002.45
2016-03-27T11:16:50.898Z,1002.5
2016-03-27T11:17:50.932Z,1002.49
2016-03-27T11:18:50.996Z,1002.47
2016-03-27T11:19:51.047Z,1002.5
2016-03-27T11:20:51.096Z,1002.46
2016-03-27T11:21:51.145Z,1002.51
2016-03-27T11:22:51.196Z,1002.52
2016-03-27T11:23:51.245Z,1002.52
2016-03-27T11:24:51.294Z,1002.47
2016-03-27T11:25:51.343Z,1002.5
2016-03-27T11:26:51.393Z,1002.51
2016-03-27T11:27:51.443Z,1002.51
2016-03-27T11:28:51.492Z,1002.56
2016-03-27T11:29:51.542Z,1002.59
2016-03-27T11:30:51.607Z,1002.6
2016-03-27T11:31:51.656Z,1002.59
2016-03-27T11:32:51.706Z,1002.57
2016-03-27T11:33:51.756Z,1002.59
2016-03-27T11:34:51.806Z,1002.64
2016-03-27T11:35:51.856Z,1002.61
2016-03-27T11:36:51.905Z,1002.65
2016-03-27T11:37:51.954Z,1002.59
2016-03-27T11:38:52.003Z,1002.58
2016-03-27T11:39:52.053Z,1002.6
2016-03-27T11:40:52.103Z,1002.55
2016-03-27T11:41:52.152Z,1002.56
2016-03-27T11:42:52.218Z,1002.55
2016-03-27T11:43:52.267Z,1002.53
2016-03-27T11:44:52.316Z,1002.59
2016-03-27T11:45:52.366Z,1002.59
2016-03-27T11:46:52.416Z,1002.59
2016-03-27T11:47:52.465Z,1002.58
2016-03-27T11:48:52.515Z,1002.6
2016-03-27T11:49:52.565Z,1002.56
2016-03-27T11:50:52.615Z,1002.51
2016-03-27T11:51:52.663Z,1002.62
2016-03-27T11:52:52.713Z,1002.58
2016-03-27T11:53:52.763Z,1002.54
2016-03-27T11:54:52.812Z,1002.58
2016-03-27T11:55:52.862Z,1002.61
2016-03-27T11:56:52.927Z,1002.55
2016-03-27T11:57:52.977Z,1002.52
2016-03-27T11:58:53.026Z,1002.58
2016-03-27T11:59:53.076Z,1002.56
2016-03-27T12:00:53.126Z,1002.54
2016-03-27T12:01:53.175Z,1002.52
2016-03-27T12:02:53.224Z,1002.49
2016-03-27T12:03:53.275Z,1002.51
2016-03-27T12:04:53.323Z,1002.52
2016-03-27T12:05:53.389Z,1002.6
2016-03-27T12:06:53.439Z,1002.56
2016-03-27T12:07:53.488Z,1002.57
2016-03-27T12:08:53.538Z,1002.58
2016-03-27T12:09:53.587Z,1002.55
2016-03-27T12:10:53.637Z,1002.62
2016-03-27T12:11:53.686Z,1002.66
2016-03-27T12:12:53.736Z,1002.63
2016-03-27T12:13:53.785Z,1002.6
2016-03-27T12:14:53.835Z,1002.6
2016-03-27T12:15:53.884Z,1002.67
2016-03-27T12:16:53.950Z,1002.54
2016-03-27T12:17:53.999Z,1002.6
2016-03-27T12:18:54.065Z,1002.58
2016-03-27T12:19:54.082Z,1002.56
2016-03-27T12:20:54.149Z,1002.53
2016-03-27T12:21:54.198Z,1002.57
2016-03-27T12:22:54.246Z,1002.53